Time;durP1;ratioP1;P1;durP2;ratioP2;P2;SDS_P1;SDS_P2;PMS_P1;PMS_P2;Temp;Humidity;BMP_temperature;BMP_pressure;BME280_temperature;BME280_humidity;BME280_pressure;Samples;Min_cycle;Max_cycle;Signal;HPM_P1;HPM_P2
2022/05/05 13:00:44;;;;;;;29.73;19.92;;;;;;;25.54;35.59;102336.97;5264053;27;20427;-46
2022/05/05 13:03:18;;;;;;;26.60;17.83;;;;;;;25.73;35.16;102341.47;5200298;28;20424;-47
2022/05/05 13:05:51;;;;;;;28.02;18.45;;;;;;;25.84;35.11;102344.59;5194641;28;20418;-46
2022/05/05 13:08:23;;;;;;;32.67;20.05;;;;;;;25.97;34.99;102333.69;5198219;28;20506;-48
2022/05/05 13:10:55;;;;;;;30.47;18.60;;;;;;;26.17;34.75;102347.13;5202392;28;20491;-52
2022/05/05 13:13:28;;;;;;;28.63;18.35;;;;;;;26.22;34.58;102331.88;5201507;28;20794;-49
2022/05/05 13:16:02;;;;;;;30.80;18.50;;;;;;;26.35;34.56;102338.25;5198390;28;20421;-49
2022/05/05 13:18:34;;;;;;;61.10;21.10;;;;;;;26.33;34.27;102314.13;5198133;28;20482;-47
2022/05/05 13:21:07;;;;;;;41.85;18.35;;;;;;;26.55;34.17;102339.00;5199087;28;20879;-47
2022/05/05 13:23:39;;;;;;;32.55;18.92;;;;;;;26.57;33.89;102331.47;5198296;28;20517;-49
2022/05/05 13:26:12;;;;;;;28.27;18.45;;;;;;;26.56;33.83;102329.78;5200455;28;20463;-49
2022/05/05 13:28:45;;;;;;;31.10;17.83;;;;;;;26.61;33.67;102329.97;5197812;28;20497;-47
2022/05/05 13:31:19;;;;;;;26.17;18.50;;;;;;;26.54;33.77;102337.34;5194572;28;20418;-47
2022/05/05 13:33:52;;;;;;;27.67;17.73;;;;;;;26.24;33.86;102333.56;5199161;28;20418;-50
2022/05/05 13:36:24;;;;;;;25.17;17.15;;;;;;;26.11;33.92;102335.28;5194857;28;20422;-48
2022/05/05 13:38:57;;;;;;;24.63;15.60;;;;;;;26.10;33.91;102330.91;5197514;28;20426;-50
2022/05/05 13:41:29;;;;;;;29.90;17.13;;;;;;;26.30;33.67;102338.09;5199660;28;20442;-51
2022/05/05 13:44:02;;;;;;;24.02;15.05;;;;;;;26.49;33.38;102329.03;5201089;28;20863;-52
2022/05/05 13:46:38;;;;;;;26.03;16.40;;;;;;;26.59;32.97;102306.84;5193423;28;20517;-51
2022/05/05 13:49:11;;;;;;;28.25;16.13;;;;;;;26.97;32.93;102341.13;5197538;28;20489;-46
2022/05/05 13:51:43;;;;;;;28.63;16.42;;;;;;;27.10;32.71;102341.84;5192323;28;20836;-50
2022/05/05 13:54:15;;;;;;;28.30;17.50;;;;;;;27.13;32.72;102327.84;5198144;28;20513;-50
2022/05/05 13:56:48;;;;;;;25.50;15.85;;;;;;;27.32;32.59;102338.75;5192915;28;20823;-49
2022/05/05 13:59:21;;;;;;;28.75;17.30;;;;;;;27.53;32.53;102334.72;5197596;28;20780;-52
2022/05/05 14:01:55;;;;;;;25.17;15.82;;;;;;;27.62;32.17;102332.53;5194854;28;20429;-48
2022/05/05 14:04:28;;;;;;;24.55;16.42;;;;;;;27.66;32.10;102333.75;5191438;28;20862;-47
2022/05/05 14:07:02;;;;;;;24.00;14.98;;;;;;;27.57;32.13;102331.34;5194276;28;20504;-47
2022/05/05 14:13:14;;;;;;;29.48;16.40;;;;;;;27.52;32.02;102338.50;5173937;28;20463;-49
2022/05/05 14:15:48;;;;;;;26.60;16.13;;;;;;;27.65;31.72;102327.47;5179663;28;20545;-44
2022/05/05 14:18:23;;;;;;;22.63;15.40;;;;;;;27.85;31.62;102327.25;5178652;28;20895;-54
2022/05/05 14:20:56;;;;;;;23.60;15.27;;;;;;;27.83;31.86;102342.94;5179758;28;21082;-52
2022/05/05 14:23:28;;;;;;;22.77;14.57;;;;;;;27.77;32.09;102346.53;5178959;28;20427;-49
2022/05/05 14:26:01;;;;;;;25.33;15.75;;;;;;;27.67;32.62;102329.97;5179486;28;20502;-48
2022/05/05 14:28:33;;;;;;;26.70;15.82;;;;;;;27.75;32.85;102343.22;5182326;28;20433;-49
2022/05/05 14:31:06;;;;;;;23.60;15.30;;;;;;;27.59;33.16;102312.94;5183425;28;20426;-51
2022/05/05 14:33:39;;;;;;;23.33;15.27;;;;;;;27.59;33.45;102328.38;5186467;28;20799;-50
2022/05/05 14:36:12;;;;;;;22.63;13.27;;;;;;;27.62;33.37;102329.81;5185755;28;20493;-47
2022/05/05 14:38:46;;;;;;;20.05;13.85;;;;;;;27.71;33.53;102342.03;5182819;28;20630;-52
2022/05/05 14:41:20;;;;;;;21.43;14.53;;;;;;;27.85;33.21;102338.13;5182356;28;20407;-52
2022/05/05 14:43:53;;;;;;;21.42;14.27;;;;;;;27.92;32.94;102333.44;5182358;28;20446;-49
2022/05/05 14:46:25;;;;;;;22.70;14.88;;;;;;;28.04;32.70;102331.59;5189381;28;20427;-48
2022/05/05 14:48:59;;;;;;;24.98;15.50;;;;;;;28.11;32.61;102349.69;5185277;28;20893;-51
2022/05/05 14:51:32;;;;;;;23.02;16.17;;;;;;;28.09;32.54;102349.06;5184683;28;20442;-52
2022/05/05 14:54:04;;;;;;;22.55;15.07;;;;;;;28.03;32.55;102345.41;5183262;28;20462;-53
2022/05/05 14:56:37;;;;;;;21.40;13.55;;;;;;;28.01;32.47;102340.19;5183856;28;20434;-49
2022/05/05 14:59:09;;;;;;;21.40;13.68;;;;;;;28.10;32.25;102345.31;5181625;28;20423;-52
2022/05/05 15:01:43;;;;;;;26.33;13.25;;;;;;;28.17;32.14;102343.31;5184940;28;20415;-52
2022/05/05 15:04:17;;;;;;;20.67;12.50;;;;;;;28.26;31.82;102350.09;5185085;28;20903;-53
2022/05/05 15:06:49;;;;;;;20.47;11.87;;;;;;;28.32;31.73;102354.59;5180435;28;20411;-54
2022/05/05 15:09:21;;;;;;;18.98;12.38;;;;;;;28.27;32.01;102352.56;5176966;28;20520;-49
2022/05/05 15:11:55;;;;;;;21.70;12.30;;;;;;;28.25;32.30;102354.69;5178598;28;20416;-51
2022/05/05 15:14:28;;;;;;;22.45;12.70;;;;;;;28.25;32.16;102360.13;5182212;28;20481;-50
2022/05/05 15:17:03;;;;;;;17.55;12.13;;;;;;;28.27;32.25;102362.59;5182698;28;20888;-52
2022/05/05 15:19:39;;;;;;;19.75;12.18;;;;;;;28.17;32.42;102354.19;5184162;28;20426;-52
2022/05/05 15:22:11;;;;;;;19.83;12.68;;;;;;;28.11;32.59;102345.06;5178809;28;20489;-49
2022/05/05 15:25:02;;;;;;;17.80;12.87;;;;;;;28.26;32.52;102356.34;5182756;28;20498;-48
2022/05/05 15:27:34;;;;;;;19.67;12.20;;;;;;;28.21;32.46;102374.38;5179896;28;20917;-51
2022/05/05 15:30:09;;;;;;;16.42;11.18;;;;;;;28.05;32.73;102363.09;5182621;28;20440;-49
2022/05/05 15:32:42;;;;;;;18.17;10.73;;;;;;;28.02;32.60;102363.56;5186554;28;20447;-54
2022/05/05 15:35:16;;;;;;;13.88;9.77;;;;;;;27.97;32.56;102368.88;5186799;28;20505;-48
2022/05/05 15:37:48;;;;;;;16.87;10.10;;;;;;;27.85;32.83;102370.72;5183620;28;20482;-51
2022/05/05 15:40:21;;;;;;;16.77;10.48;;;;;;;27.86;32.75;102377.78;5187617;28;20415;-53
2022/05/05 15:42:53;;;;;;;11.10;8.77;;;;;;;27.89;32.49;102377.31;5185596;28;20422;-53
2022/05/05 15:45:26;;;;;;;15.48;9.32;;;;;;;27.87;32.42;102373.19;5187831;28;20586;-53
2022/05/05 15:47:58;;;;;;;13.93;8.93;;;;;;;27.72;32.70;102370.84;5186626;28;20572;-50
2022/05/05 15:50:32;;;;;;;12.18;8.57;;;;;;;27.65;33.14;102370.06;5185896;28;20521;-48
2022/05/05 15:53:05;;;;;;;12.57;9.30;;;;;;;27.38;33.39;102364.09;5181504;28;20819;-51
2022/05/05 15:55:37;;;;;;;12.07;9.23;;;;;;;27.32;33.26;102365.88;5182299;28;20954;-50
2022/05/05 15:58:10;;;;;;;15.90;9.90;;;;;;;27.32;33.37;102374.00;5178677;28;20449;-53
2022/05/05 16:00:42;;;;;;;15.05;9.90;;;;;;;27.30;33.02;102370.69;5181179;28;20421;-50
2022/05/05 16:03:18;;;;;;;13.65;8.60;;;;;;;27.28;32.89;102370.06;5182496;28;20407;-53
2022/05/05 16:05:55;;;;;;;13.07;9.63;;;;;;;27.21;32.81;102377.44;5174676;28;20907;-49
2022/05/05 16:08:27;;;;;;;11.70;8.50;;;;;;;27.12;32.59;102366.00;5173255;28;20427;-52
2022/05/05 16:11:00;;;;;;;12.88;8.77;;;;;;;27.08;32.41;102378.38;5162259;28;20828;-50
2022/05/05 16:13:32;;;;;;;13.05;8.63;;;;;;;26.92;32.51;102387.91;5154670;28;20409;-49
2022/05/05 16:16:06;;;;;;;11.75;7.85;;;;;;;26.71;32.47;102363.88;5154215;28;20464;-51
2022/05/05 16:18:39;;;;;;;10.15;7.65;;;;;;;26.84;32.41;102385.44;5142676;28;20476;-53
2022/05/05 16:21:13;;;;;;;13.50;10.00;;;;;;;26.80;32.45;102384.25;5158027;28;20429;-49
2022/05/05 16:23:47;;;;;;;16.33;9.15;;;;;;;26.71;32.19;102372.00;5168979;28;20777;-51
2022/05/05 16:31:58;;;;;;;13.77;9.55;;;;;;;26.63;32.01;102384.78;5165272;28;20405;-50
2022/05/05 16:34:31;;;;;;;14.63;9.10;;;;;;;26.59;32.03;102388.97;5164776;28;20504;-48
2022/05/05 16:37:05;;;;;;;12.45;8.57;;;;;;;26.49;31.94;102382.38;5167369;28;20405;-49
2022/05/05 16:39:38;;;;;;;13.82;9.70;;;;;;;26.46;31.96;102389.03;5156919;28;20420;-51
2022/05/05 16:42:10;;;;;;;12.88;9.00;;;;;;;26.41;32.07;102386.97;5166720;28;20496;-52
2022/05/05 16:44:43;;;;;;;13.50;10.73;;;;;;;26.30;32.09;102378.72;5164963;28;20405;-53
2022/05/05 16:47:15;;;;;;;13.73;10.35;;;;;;;26.33;32.01;102391.84;5167009;28;20425;-51
2022/05/05 16:49:47;;;;;;;15.57;10.70;;;;;;;26.20;32.10;102396.28;5154952;28;20885;-47
2022/05/05 16:52:21;;;;;;;14.73;11.02;;;;;;;26.05;32.40;102393.03;5166427;28;20408;-49
2022/05/05 16:54:54;;;;;;;15.40;10.18;;;;;;;25.88;32.52;102389.13;5164880;28;20427;-52
2022/05/05 16:57:26;;;;;;;13.90;9.73;;;;;;;25.75;32.96;102388.09;5165695;28;20511;-49
2022/05/05 16:59:59;;;;;;;13.57;9.98;;;;;;;25.63;32.64;102389.78;5161679;28;20881;-51
2022/05/05 17:02:31;;;;;;;11.52;9.18;;;;;;;25.58;32.84;102388.75;5166430;28;20947;-55
2022/05/05 17:05:05;;;;;;;12.60;9.50;;;;;;;25.53;32.82;102389.41;5162850;28;20494;-56
2022/05/05 17:07:38;;;;;;;19.10;10.20;;;;;;;25.40;32.83;102389.44;5166976;28;26114;-51
2022/05/05 17:10:15;;;;;;;13.65;9.75;;;;;;;25.30;33.06;102379.91;5163192;28;20487;-50
2022/05/05 17:12:48;;;;;;;13.80;9.63;;;;;;;25.26;33.09;102384.03;5151017;28;20416;-49
2022/05/05 17:15:21;;;;;;;13.20;8.95;;;;;;;25.23;33.16;102395.28;5163245;28;20412;-51
2022/05/05 17:17:53;;;;;;;13.18;10.07;;;;;;;25.11;33.41;102383.41;5165352;28;20420;-51
2022/05/05 17:20:31;;;;;;;13.93;10.05;;;;;;;25.02;33.41;102403.56;5160044;28;20508;-53
2022/05/05 17:23:05;;;;;;;17.10;10.82;;;;;;;24.84;33.49;102388.84;5140677;28;20426;-51
2022/05/05 17:25:37;;;;;;;15.50;11.10;;;;;;;24.72;33.69;102382.38;5158020;28;20415;-49
2022/05/05 17:28:10;;;;;;;17.58;10.68;;;;;;;24.70;33.81;102400.66;5162051;28;20476;-49
2022/05/05 17:30:42;;;;;;;16.90;11.73;;;;;;;24.58;34.04;102403.13;5165156;28;20408;-50
2022/05/05 17:33:14;;;;;;;16.02;10.70;;;;;;;24.34;34.35;102401.81;5165768;28;20408;-51
2022/05/05 17:35:47;;;;;;;14.47;11.03;;;;;;;24.01;34.74;102406.25;5162242;28;20427;-51
2022/05/05 17:38:21;;;;;;;18.92;12.13;;;;;;;23.66;35.09;102371.16;5163548;28;20951;-50
2022/05/05 17:40:53;;;;;;;16.88;11.05;;;;;;;23.78;35.10;102406.53;5161795;28;20528;-49
2022/05/05 17:43:26;;;;;;;14.85;10.73;;;;;;;23.68;35.29;102412.28;5163722;28;20526;-51
2022/05/05 17:51:38;;;;;;;29.92;18.42;;;;;;;23.26;36.19;102419.47;5165645;28;20401;-52
2022/05/05 17:54:12;;;;;;;20.53;14.17;;;;;;;23.11;36.69;102421.44;5165478;28;20769;-47
2022/05/05 17:56:46;;;;;;;26.08;16.75;;;;;;;22.91;36.89;102415.81;5167743;28;20433;-52
2022/05/05 17:59:19;;;;;;;25.00;16.40;;;;;;;22.79;37.18;102423.56;5164613;28;20888;-53
2022/05/05 18:01:51;;;;;;;26.17;16.30;;;;;;;22.66;37.38;102418.06;5181734;28;20534;-50
2022/05/05 18:04:25;;;;;;;26.88;16.90;;;;;;;22.54;37.78;102434.72;5169183;28;20467;-48
2022/05/05 18:06:58;;;;;;;24.00;17.20;;;;;;;22.35;38.21;102438.00;5166194;28;20451;-51
2022/05/05 18:09:31;;;;;;;34.88;22.90;;;;;;;22.23;38.52;102428.75;5167687;28;20444;-51
2022/05/05 18:12:05;;;;;;;24.65;16.75;;;;;;;22.10;38.66;102430.22;5166154;28;20423;-52
2022/05/05 18:14:38;;;;;;;25.45;18.23;;;;;;;21.73;39.13;102403.47;5163159;28;20640;-47
2022/05/05 18:17:28;;;;;;;25.80;18.15;;;;;;;21.74;39.38;102429.31;5162910;28;20872;-52
2022/05/05 18:20:01;;;;;;;27.92;18.65;;;;;;;21.56;39.84;102433.22;5158011;28;20449;-49
2022/05/05 18:22:35;;;;;;;27.15;18.77;;;;;;;21.42;40.15;102434.03;5155389;28;20413;-50
2022/05/05 18:25:10;;;;;;;28.92;19.10;;;;;;;21.32;40.37;102441.47;5161937;28;20516;-51
2022/05/05 18:27:44;;;;;;;29.30;18.88;;;;;;;21.19;40.66;102437.56;5158939;28;20453;-47
2022/05/05 18:30:16;;;;;;;30.67;19.48;;;;;;;21.11;40.85;102443.00;5160914;28;20498;-49
2022/05/05 18:32:51;;;;;;;26.55;18.92;;;;;;;21.05;40.97;102454.47;5153212;28;20421;-49
2022/05/05 18:35:24;;;;;;;28.85;20.20;;;;;;;20.98;41.19;102456.19;5161470;28;20431;-49
2022/05/05 18:37:57;;;;;;;30.52;21.55;;;;;;;20.88;41.46;102442.19;5161585;28;21000;-52
2022/05/05 18:40:31;;;;;;;30.63;20.45;;;;;;;20.73;41.63;102447.47;5159494;28;20714;-51
2022/05/05 18:43:05;;;;;;;26.35;18.75;;;;;;;20.60;42.05;102453.44;5153531;28;20512;-53
2022/05/05 18:45:38;;;;;;;27.10;18.55;;;;;;;20.49;42.27;102461.84;5159744;28;20461;-48
2022/05/05 18:48:11;;;;;;;27.27;18.27;;;;;;;20.35;42.62;102454.56;5161391;28;20526;-54
2022/05/05 18:50:43;;;;;;;31.30;20.05;;;;;;;20.16;42.85;102451.28;5161535;28;20443;-51
2022/05/05 18:53:16;;;;;;;29.23;18.80;;;;;;;20.00;43.15;102454.00;5159142;28;20511;-53
2022/05/05 18:55:50;;;;;;;33.08;20.58;;;;;;;19.79;43.44;102463.47;5148379;28;20873;-52
2022/05/05 18:58:22;;;;;;;30.85;21.80;;;;;;;19.65;43.72;102458.78;5156333;28;21082;-50
2022/05/05 19:00:55;;;;;;;34.67;22.63;;;;;;;19.50;43.94;102458.59;5155472;28;20512;-53
2022/05/05 19:03:28;;;;;;;35.95;24.55;;;;;;;19.11;44.11;102420.97;5161423;28;20425;-47
2022/05/05 19:06:00;;;;;;;37.05;23.13;;;;;;;19.31;44.25;102459.78;5157951;28;20464;-47
2022/05/05 19:08:32;;;;;;;37.60;22.20;;;;;;;19.23;44.41;102470.53;5157468;28;20424;-50
2022/05/05 19:11:06;;;;;;;30.20;20.30;;;;;;;19.01;44.73;102465.81;5160170;28;20506;-52
2022/05/05 19:13:39;;;;;;;39.72;23.52;;;;;;;18.89;44.94;102473.31;5164438;28;20814;-48
2022/05/05 19:16:11;;;;;;;40.00;23.92;;;;;;;18.79;45.20;102484.16;5165409;28;20511;-51
2022/05/05 19:18:44;;;;;;;43.50;25.25;;;;;;;18.67;45.47;102475.59;5162887;28;20412;-48
2022/05/05 19:21:16;;;;;;;34.33;22.13;;;;;;;18.54;45.63;102490.44;5160450;28;20417;-47
2022/05/05 19:23:49;;;;;;;45.67;28.33;;;;;;;18.47;45.84;102484.06;5158842;28;20413;-45
2022/05/05 19:26:23;;;;;;;171.50;109.00;;;;;;;18.23;46.22;102482.94;5161866;28;20451;-50
2022/05/05 19:28:55;;;;;;;62.50;41.25;;;;;;;18.27;46.16;102495.03;5161447;28;20499;-49
2022/05/05 19:31:27;;;;;;;38.33;23.40;;;;;;;18.23;46.37;102504.34;5167378;28;20422;-49
2022/05/05 19:34:01;;;;;;;36.00;22.60;;;;;;;18.14;46.47;102502.63;5167980;28;21503;-49
2022/05/05 19:36:33;;;;;;;37.30;22.77;;;;;;;18.06;46.58;102507.94;5159864;28;20911;-50
2022/05/05 19:39:06;;;;;;;38.10;23.88;;;;;;;18.03;46.61;102510.94;5164780;28;20507;-47
2022/05/05 19:41:39;;;;;;;35.58;23.60;;;;;;;17.98;46.82;102512.22;5160954;28;20452;-47
2022/05/05 19:44:13;;;;;;;38.25;22.38;;;;;;;17.94;47.02;102515.38;5162569;28;20412;-50
2022/05/05 19:46:46;;;;;;;39.90;23.60;;;;;;;17.88;47.08;102522.19;5159817;28;20734;-46
2022/05/05 19:49:19;;;;;;;39.03;23.20;;;;;;;17.80;47.29;102521.28;5163649;28;21196;-47
2022/05/05 19:51:51;;;;;;;40.05;23.75;;;;;;;17.77;47.35;102525.09;5167978;28;20488;-48
2022/05/05 19:54:25;;;;;;;34.72;22.52;;;;;;;17.71;47.54;102526.56;5166309;28;21137;-52
2022/05/05 20:02:38;;;;;;;37.05;23.00;;;;;;;17.42;48.01;102529.47;5164908;28;20942;-49
2022/05/05 20:08:01;;;;;;;80.20;45.72;;;;;;;17.11;48.34;102507.66;5164633;28;20437;-47
2022/05/05 20:10:34;;;;;;;120.15;65.10;;;;;;;17.34;48.52;102555.28;5168160;28;21253;-46
2022/05/05 20:13:08;;;;;;;66.38;38.20;;;;;;;17.19;48.42;102546.97;5168076;28;20487;-48
2022/05/05 20:15:40;;;;;;;92.35;51.35;;;;;;;17.13;48.80;102558.25;5166289;28;20893;-49
2022/05/05 20:18:12;;;;;;;173.23;90.65;;;;;;;17.14;49.04;102567.94;5167786;28;20496;-46
2022/05/05 20:20:45;;;;;;;74.68;40.72;;;;;;;16.80;49.06;102528.53;5162469;28;20475;-46
2022/05/05 20:23:18;;;;;;;45.30;26.92;;;;;;;17.00;49.28;102570.13;5166318;28;20416;-49
2022/05/05 20:25:51;;;;;;;44.05;26.13;;;;;;;16.88;49.39;102559.78;5165273;28;20439;-51
2022/05/05 20:28:25;;;;;;;94.43;52.63;;;;;;;16.73;49.63;102551.44;5167607;28;20408;-50
2022/05/05 20:30:58;;;;;;;36.10;24.10;;;;;;;16.80;49.85;102571.22;5166858;28;20413;-51
2022/05/05 20:33:30;;;;;;;40.08;24.23;;;;;;;16.68;50.04;102564.38;5167577;28;20414;-48
2022/05/05 20:36:03;;;;;;;40.55;23.13;;;;;;;16.61;49.96;102564.13;5159208;28;20911;-49
2022/05/05 20:38:35;;;;;;;44.95;27.75;;;;;;;16.65;50.19;102572.66;5167022;28;20483;-46
2022/05/05 20:41:08;;;;;;;51.80;31.02;;;;;;;16.54;50.37;102581.72;5166171;28;20412;-46
2022/05/05 20:43:42;;;;;;;71.65;44.45;;;;;;;16.40;50.66;102582.19;5166362;28;20429;-48
2022/05/05 20:46:14;;;;;;;43.50;30.33;;;;;;;16.38;50.91;102590.31;5164064;28;20901;-48
2022/05/05 20:48:46;;;;;;;42.58;27.63;;;;;;;16.31;51.02;102583.88;5165550;28;20444;-46
2022/05/05 20:51:19;;;;;;;38.08;26.23;;;;;;;16.38;51.19;102590.31;5162696;28;20451;-46
2022/05/05 20:53:51;;;;;;;48.05;28.33;;;;;;;16.39;51.16;102589.34;5166346;28;20503;-46
2022/05/05 20:56:23;;;;;;;42.17;27.20;;;;;;;16.34;51.40;102583.59;5161236;28;20444;-46
2022/05/05 20:58:57;;;;;;;44.05;28.27;;;;;;;16.42;51.50;102586.38;5155285;28;20419;-49
2022/05/05 21:01:30;;;;;;;42.10;27.75;;;;;;;16.35;51.66;102574.59;5163174;28;20504;-49
2022/05/05 21:04:03;;;;;;;42.83;26.48;;;;;;;16.41;51.69;102579.34;5167037;28;20439;-48
2022/05/05 21:06:35;;;;;;;44.28;25.95;;;;;;;16.44;51.82;102589.72;5161003;28;20916;-47
2022/05/05 21:09:08;;;;;;;41.42;24.63;;;;;;;16.40;51.88;102583.00;5163267;28;22372;-49
2022/05/05 21:11:41;;;;;;;43.20;24.90;;;;;;;16.42;52.00;102589.03;5165076;28;20420;-49
2022/05/05 21:14:15;;;;;;;34.92;22.55;;;;;;;16.41;52.13;102595.34;5162228;28;20424;-47
2022/05/05 21:16:47;;;;;;;35.97;21.13;;;;;;;16.38;52.23;102590.31;5158776;28;20491;-46
2022/05/05 21:19:20;;;;;;;32.67;20.67;;;;;;;16.22;52.19;102579.41;5161702;28;20494;-49
2022/05/05 21:27:31;;;;;;;26.58;17.08;;;;;;;16.11;52.60;102602.59;5161223;28;20714;-46
2022/05/05 21:30:06;;;;;;;27.65;17.55;;;;;;;16.10;52.69;102597.38;5166694;28;20510;-49
2022/05/05 21:32:38;;;;;;;29.40;17.85;;;;;;;16.05;52.70;102589.84;5165327;28;20415;-49
2022/05/05 21:35:11;;;;;;;28.27;18.00;;;;;;;16.05;52.83;102597.84;5163209;28;20409;-48
2022/05/05 21:37:43;;;;;;;32.28;19.30;;;;;;;15.87;52.81;102588.88;5162119;28;20535;-51
2022/05/05 21:40:15;;;;;;;29.00;17.98;;;;;;;15.98;53.02;102599.41;5167810;28;20437;-49
2022/05/05 21:42:49;;;;;;;30.08;18.73;;;;;;;15.98;53.23;102604.72;5167581;28;20435;-51
2022/05/05 21:45:23;;;;;;;31.67;19.15;;;;;;;15.97;53.00;102607.53;5163758;28;20485;-49
2022/05/05 21:47:55;;;;;;;30.95;19.08;;;;;;;15.87;52.99;102596.88;5164584;28;20943;-49
2022/05/05 21:50:28;;;;;;;32.83;19.13;;;;;;;15.81;53.34;102592.13;5166641;28;20424;-47
2022/05/05 21:53:02;;;;;;;30.30;18.80;;;;;;;15.80;53.36;102590.44;5165008;28;20413;-47
2022/05/05 21:55:34;;;;;;;32.17;18.38;;;;;;;15.86;53.23;102605.84;5167652;28;20952;-48
2022/05/05 21:58:09;;;;;;;25.70;17.02;;;;;;;15.84;53.45;102607.81;5166687;28;20900;-51
2022/05/05 22:00:47;;;;;;;23.15;16.10;;;;;;;15.79;53.61;102607.38;5147411;28;20408;-49
2022/05/05 22:03:22;;;;;;;19.52;13.70;;;;;;;15.70;53.63;102610.88;5147952;28;20942;-51
2022/05/05 22:05:56;;;;;;;19.83;14.73;;;;;;;15.60;53.85;102640.16;5145928;28;20430;-49
2022/05/05 22:08:31;;;;;;;22.13;14.27;;;;;;;15.57;53.85;102611.13;5146132;28;20705;-48
2022/05/05 22:11:06;;;;;;;21.25;14.60;;;;;;;15.49;53.96;102597.69;5146793;28;20433;-49
2022/05/05 22:13:38;;;;;;;21.27;14.88;;;;;;;15.49;54.02;102608.34;5147241;28;20419;-47
2022/05/05 22:16:12;;;;;;;20.20;14.25;;;;;;;15.47;54.02;102612.97;5146815;28;20421;-48
2022/05/05 22:18:44;;;;;;;23.10;14.88;;;;;;;15.48;54.08;102622.63;5145726;28;20434;-49
2022/05/05 22:21:17;;;;;;;25.40;16.67;;;;;;;15.36;54.01;102592.63;5146832;28;21201;-48
2022/05/05 22:23:49;;;;;;;28.70;17.25;;;;;;;15.48;54.01;102618.13;5142539;28;20431;-44
2022/05/05 22:26:22;;;;;;;28.90;17.15;;;;;;;15.42;54.17;102611.56;5134455;28;20550;-46
2022/05/05 22:28:54;;;;;;;30.17;17.83;;;;;;;15.42;54.20;102613.34;5146764;28;20828;-48
2022/05/05 22:31:28;;;;;;;34.80;19.38;;;;;;;15.47;54.14;102619.13;5128426;28;20553;-46
2022/05/05 22:34:01;;;;;;;33.47;19.10;;;;;;;15.44;54.31;102620.22;5148020;28;20588;-48
2022/05/05 22:36:33;;;;;;;34.92;19.40;;;;;;;15.43;54.26;102621.22;5146690;28;20410;-46
2022/05/05 22:39:05;;;;;;;36.80;19.40;;;;;;;15.43;54.33;102623.06;5146374;28;20428;-47
2022/05/05 22:41:52;;;;;;;34.38;19.88;;;;;;;15.37;54.34;102610.28;5147438;28;20429;-46
2022/05/05 22:44:27;;;;;;;32.42;18.35;;;;;;;15.43;54.35;102612.41;5140838;28;20427;-48
2022/05/05 22:47:00;;;;;;;34.53;20.40;;;;;;;15.41;54.46;102614.34;5145910;28;20417;-52
2022/05/05 22:52:23;;;;;;;40.05;20.90;;;;;;;15.40;54.65;102610.00;5141755;28;20426;-50
2022/05/05 22:54:56;;;;;;;37.20;20.88;;;;;;;15.45;54.78;102624.59;5145451;28;20419;-50
2022/05/05 22:57:28;;;;;;;38.55;21.42;;;;;;;15.37;54.80;102604.97;5141892;28;20418;-51
2022/05/05 23:00:01;;;;;;;40.05;21.75;;;;;;;15.16;54.53;102581.94;5158107;28;20440;-48
2022/05/05 23:02:35;;;;;;;35.42;20.88;;;;;;;15.39;54.98;102625.16;5171213;28;20868;-46
2022/05/05 23:05:08;;;;;;;39.30;22.80;;;;;;;15.37;55.13;102627.09;5168601;28;20846;-51
2022/05/05 23:07:40;;;;;;;34.35;20.50;;;;;;;15.38;55.19;102628.78;5156651;28;20486;-54
2022/05/05 23:10:13;;;;;;;32.90;19.67;;;;;;;15.37;55.11;102626.25;5163630;28;20503;-46
2022/05/05 23:12:46;;;;;;;35.78;20.98;;;;;;;15.28;55.19;102611.94;5166211;28;20836;-45
2022/05/05 23:15:18;;;;;;;31.95;20.13;;;;;;;15.33;55.24;102624.84;5163024;28;20441;-46
2022/05/05 23:17:52;;;;;;;31.90;21.20;;;;;;;15.26;55.41;102618.38;5162409;28;20750;-47
2022/05/05 23:20:24;;;;;;;30.23;18.30;;;;;;;15.09;55.33;102596.78;5164641;28;20412;-48
2022/05/05 23:22:57;;;;;;;28.90;18.30;;;;;;;15.25;55.55;102632.69;5167352;28;20428;-46
2022/05/05 23:25:30;;;;;;;21.85;14.45;;;;;;;15.23;55.59;102636.31;5153178;28;20553;-47
2022/05/05 23:28:02;;;;;;;20.58;14.20;;;;;;;15.16;55.54;102626.34;5163356;28;20436;-47
2022/05/05 23:30:36;;;;;;;22.05;14.90;;;;;;;15.17;55.69;102626.22;5164885;28;20475;-49
2022/05/05 23:33:09;;;;;;;20.10;13.77;;;;;;;15.09;55.79;102633.22;5166207;28;22155;-48
2022/05/05 23:38:32;;;;;;;20.00;14.03;;;;;;;14.96;56.01;102625.47;5163445;28;20476;-48
2022/05/05 23:41:04;;;;;;;20.00;14.23;;;;;;;14.89;56.15;102611.84;5164876;28;20457;-49
2022/05/05 23:43:37;;;;;;;18.45;13.50;;;;;;;14.85;55.96;102620.22;5164682;28;20431;-51
2022/05/05 23:46:09;;;;;;;19.60;13.73;;;;;;;14.91;56.11;102625.84;5163893;28;20448;-50
2022/05/05 23:48:43;;;;;;;22.83;15.50;;;;;;;14.89;56.23;102625.13;5163201;28;20486;-50
2022/05/05 23:54:17;;;;;;;22.20;14.45;;;;;;;14.87;56.13;102618.28;5098592;28;20474;-52
2022/05/05 23:56:51;;;;;;;21.50;14.95;;;;;;;14.80;55.90;102606.47;5134108;28;20534;-50
2022/05/05 23:59:23;;;;;;;23.08;15.82;;;;;;;14.88;56.23;102615.47;5161755;28;20432;-49
